createdAt,value
2017-11-21T00:02:11.537Z,4.53
2017-11-21T00:04:38.215Z,4.70
2017-11-21T00:07:04.898Z,4.60
2017-11-21T00:09:31.602Z,4.77
2017-11-21T00:11:58.295Z,5.43
2017-11-21T00:14:24.951Z,4.70
2017-11-21T00:16:51.643Z,4.80
2017-11-21T00:19:18.337Z,4.70
2017-11-21T00:21:45.123Z,5.00
2017-11-21T00:24:11.888Z,5.40
2017-11-21T00:26:38.591Z,4.77
2017-11-21T00:29:05.253Z,5.40
2017-11-21T00:31:32.071Z,4.50
2017-11-21T00:33:58.753Z,5.23
2017-11-21T00:36:26.263Z,4.93
2017-11-21T00:38:52.953Z,5.90
2017-11-21T00:41:19.660Z,5.70
2017-11-21T00:43:46.336Z,6.00
2017-11-21T00:46:13.117Z,5.40
2017-11-21T00:48:40.494Z,5.50
2017-11-21T00:51:07.161Z,4.90
2017-11-21T00:53:33.852Z,5.73
2017-11-21T00:56:00.535Z,5.73
2017-11-21T00:58:27.380Z,6.07
2017-11-21T01:00:54.095Z,6.03
2017-11-21T01:03:20.956Z,5.70
2017-11-21T01:05:47.617Z,5.73
2017-11-21T01:08:14.323Z,5.87
2017-11-21T01:10:41.119Z,5.37
2017-11-21T01:13:07.812Z,5.20
2017-11-21T01:15:34.522Z,5.83
2017-11-21T01:18:01.694Z,4.83
2017-11-21T01:20:28.367Z,5.47
2017-11-21T01:22:55.167Z,5.63
2017-11-21T01:25:21.836Z,5.03
2017-11-21T01:27:48.551Z,5.80
2017-11-21T01:30:15.204Z,5.20
2017-11-21T01:32:41.871Z,4.77
2017-11-21T01:35:08.566Z,5.30
2017-11-21T01:37:35.218Z,5.57
2017-11-21T01:40:01.922Z,5.20
2017-11-21T01:42:28.612Z,4.40
2017-11-21T01:44:55.280Z,4.57
2017-11-21T01:47:21.961Z,5.10
2017-11-21T01:49:48.625Z,4.90
2017-11-21T01:52:15.316Z,4.60
2017-11-21T01:54:41.993Z,4.60
2017-11-21T01:57:08.691Z,4.50
2017-11-21T01:59:35.462Z,4.40
2017-11-21T02:02:02.186Z,4.20
2017-11-21T02:04:28.854Z,4.27
2017-11-21T02:06:55.523Z,5.00
2017-11-21T02:09:22.296Z,4.20
2017-11-21T02:11:48.961Z,4.47
2017-11-21T02:14:15.671Z,4.23
2017-11-21T02:16:42.327Z,5.17
2017-11-21T02:19:08.999Z,4.33
2017-11-21T02:21:35.682Z,5.20
2017-11-21T02:24:02.368Z,4.23
2017-11-21T02:26:29.045Z,4.67
2017-11-21T02:28:55.725Z,3.80
2017-11-21T02:31:22.425Z,4.40
2017-11-21T02:33:49.726Z,4.57
2017-11-21T02:36:16.412Z,4.27
2017-11-21T02:38:43.120Z,4.53
2017-11-21T02:41:09.799Z,3.97
2017-11-21T02:43:36.498Z,4.20
2017-11-21T02:46:03.175Z,4.63
2017-11-21T02:48:29.957Z,4.30
2017-11-21T02:50:56.643Z,4.10
2017-11-21T02:53:23.322Z,4.90
2017-11-21T02:55:50.050Z,5.20
2017-11-21T02:58:16.746Z,4.10
2017-11-21T03:00:43.427Z,3.83
2017-11-21T03:03:10.083Z,4.40
2017-11-21T03:05:36.821Z,3.80
2017-11-21T03:08:03.537Z,3.40
2017-11-21T03:10:30.224Z,3.30
2017-11-21T03:12:56.902Z,2.97
2017-11-21T03:15:23.612Z,3.70
2017-11-21T03:17:50.267Z,2.93
2017-11-21T03:20:22.866Z,3.10
2017-11-21T03:22:55.364Z,3.40
2017-11-21T03:25:27.856Z,3.50
2017-11-21T03:28:09.253Z,3.43
2017-11-21T03:30:35.949Z,2.97
2017-11-21T03:33:02.630Z,3.10
2017-11-21T03:35:29.345Z,3.23
2017-11-21T03:37:56.050Z,3.13
2017-11-21T03:40:22.735Z,2.97
2017-11-21T03:42:49.427Z,2.70
2017-11-21T03:45:16.111Z,3.30
2017-11-21T03:47:42.895Z,2.93
2017-11-21T03:50:09.591Z,3.00
2017-11-21T03:52:36.371Z,2.87
2017-11-21T03:55:03.060Z,3.30
2017-11-21T03:57:30.018Z,2.50
2017-11-21T03:59:56.713Z,2.57
2017-11-21T04:02:23.389Z,3.00
2017-11-21T04:04:50.041Z,3.57
2017-11-21T04:07:16.724Z,3.03
2017-11-21T04:09:44.044Z,2.77
2017-11-21T04:12:10.729Z,2.77
2017-11-21T04:14:38.028Z,2.90
2017-11-21T04:17:04.711Z,3.73
2017-11-21T04:19:31.440Z,2.90
2017-11-21T04:21:58.112Z,3.07
2017-11-21T04:24:24.853Z,3.07
2017-11-21T04:26:51.512Z,3.10
2017-11-21T04:29:18.180Z,3.23
2017-11-21T04:31:45.620Z,2.90
2017-11-21T04:34:12.441Z,2.83
2017-11-21T04:36:39.189Z,2.80
2017-11-21T04:39:05.895Z,2.93
2017-11-21T04:41:32.577Z,2.93
2017-11-21T04:43:59.267Z,3.00
2017-11-21T04:46:25.977Z,3.07
2017-11-21T04:48:52.645Z,3.03
2017-11-21T04:51:19.427Z,3.30
2017-11-21T04:53:46.124Z,3.20
2017-11-21T04:56:12.908Z,3.17
2017-11-21T04:58:39.645Z,2.93
2017-11-21T05:01:06.323Z,2.97
2017-11-21T05:03:33.025Z,3.70
2017-11-21T05:05:59.711Z,3.20
2017-11-21T05:08:26.434Z,3.20
2017-11-21T05:10:53.127Z,3.17
2017-11-21T05:13:19.867Z,3.40
2017-11-21T05:15:46.584Z,2.90
2017-11-21T05:18:13.905Z,3.17
2017-11-21T05:20:40.582Z,3.43
2017-11-21T05:23:07.255Z,2.93
2017-11-21T05:25:33.978Z,2.80
2017-11-21T05:28:00.671Z,3.47
2017-11-21T05:30:27.356Z,2.60
2017-11-21T05:33:00.725Z,3.03
2017-11-21T05:35:27.532Z,2.93
2017-11-21T05:37:54.383Z,3.43
2017-11-21T05:40:21.062Z,3.00
2017-11-21T05:42:47.735Z,3.60
2017-11-21T05:45:14.452Z,3.23
2017-11-21T05:47:41.121Z,2.23
2017-11-21T05:50:07.807Z,2.77
2017-11-21T05:52:34.523Z,3.03
2017-11-21T05:55:01.213Z,2.90
2017-11-21T05:57:28.018Z,2.87
2017-11-21T05:59:54.730Z,2.80
2017-11-21T06:02:21.396Z,2.40
2017-11-21T06:04:48.121Z,2.77
2017-11-21T06:07:14.797Z,3.37
2017-11-21T06:09:41.515Z,2.70
2017-11-21T06:12:08.193Z,3.70
2017-11-21T06:14:34.999Z,2.73
2017-11-21T06:17:01.688Z,3.10
2017-11-21T06:19:28.444Z,2.90
2017-11-21T06:21:55.124Z,2.73
2017-11-21T06:24:22.304Z,3.40
2017-11-21T06:26:48.988Z,2.73
2017-11-21T06:29:15.837Z,2.90
2017-11-21T06:31:42.524Z,2.70
2017-11-21T06:34:09.271Z,2.70
2017-11-21T06:36:35.969Z,2.57
2017-11-21T06:39:02.653Z,3.00
2017-11-21T06:41:29.325Z,2.73
2017-11-21T06:43:56.046Z,2.80
2017-11-21T06:46:22.749Z,2.83
2017-11-21T06:48:49.479Z,2.30
2017-11-21T06:51:16.222Z,2.33
2017-11-21T06:53:42.924Z,2.50
2017-11-21T06:56:09.642Z,2.83
2017-11-21T06:58:36.318Z,2.43
2017-11-21T07:01:03.010Z,2.50
2017-11-21T07:03:29.765Z,2.30
2017-11-21T07:05:56.476Z,2.30
2017-11-21T07:08:23.155Z,2.73
2017-11-21T07:10:49.840Z,2.00
2017-11-21T07:13:16.532Z,2.67
2017-11-21T07:15:43.204Z,2.47
2017-11-21T07:18:10.064Z,2.70
2017-11-21T07:20:36.882Z,2.20
2017-11-21T07:23:03.668Z,2.20
2017-11-21T07:25:30.451Z,1.90
2017-11-21T07:27:57.187Z,1.90
2017-11-21T07:30:23.927Z,2.50
2017-11-21T07:32:50.619Z,1.60
2017-11-21T07:35:17.363Z,2.00
2017-11-21T07:37:44.051Z,2.13
2017-11-21T07:40:10.793Z,2.03
2017-11-21T07:42:37.473Z,2.10
2017-11-21T07:45:04.158Z,1.83
2017-11-21T07:47:30.867Z,1.90
2017-11-21T07:49:57.525Z,2.00
2017-11-21T07:52:24.215Z,2.23
2017-11-21T07:54:50.887Z,2.33
2017-11-21T07:57:17.574Z,1.77
2017-11-21T07:59:44.316Z,2.40
2017-11-21T08:02:11.003Z,2.37
2017-11-21T08:04:37.889Z,2.37
2017-11-21T08:07:04.552Z,2.13
2017-11-21T08:09:31.240Z,2.80
2017-11-21T08:11:57.921Z,2.23
2017-11-21T08:14:24.647Z,2.80
2017-11-21T08:16:51.327Z,2.30
2017-11-21T08:19:18.039Z,2.27
2017-11-21T08:21:44.717Z,2.70
2017-11-21T08:24:11.377Z,2.50
2017-11-21T08:26:38.077Z,2.20
2017-11-21T08:29:04.731Z,2.17
2017-11-21T08:31:31.460Z,2.57
2017-11-21T08:33:58.162Z,2.20
2017-11-21T08:36:24.844Z,2.57
2017-11-21T08:38:51.604Z,2.50
2017-11-21T08:41:18.858Z,2.93
2017-11-21T08:43:45.538Z,2.43
2017-11-21T08:46:12.254Z,2.73
2017-11-21T08:48:38.946Z,2.83
2017-11-21T08:51:05.613Z,3.07
2017-11-21T08:53:32.319Z,3.00
2017-11-21T08:55:59.066Z,3.20
2017-11-21T08:58:25.727Z,3.20
2017-11-21T09:00:52.490Z,2.93
2017-11-21T09:03:19.149Z,3.30
2017-11-21T09:05:45.826Z,3.20
2017-11-21T09:08:12.530Z,3.13
2017-11-21T09:10:39.219Z,3.47
2017-11-21T09:13:05.901Z,2.90
2017-11-21T09:15:32.592Z,3.33
2017-11-21T09:17:59.267Z,3.07
2017-11-21T09:20:26.009Z,3.30
2017-11-21T09:22:52.703Z,3.10
2017-11-21T09:25:19.369Z,2.80
2017-11-21T09:27:46.054Z,3.47
2017-11-21T09:30:12.719Z,2.80
2017-11-21T09:32:39.440Z,2.77
2017-11-21T09:35:06.113Z,2.70
2017-11-21T09:37:32.801Z,2.90
2017-11-21T09:39:59.488Z,3.10
2017-11-21T09:42:26.265Z,3.10
2017-11-21T09:44:53.028Z,2.73
2017-11-21T09:47:19.889Z,3.40
2017-11-21T09:49:46.568Z,2.67
2017-11-21T09:52:13.255Z,3.43
2017-11-21T09:54:39.902Z,3.17
2017-11-21T09:57:06.612Z,3.00
2017-11-21T09:59:33.290Z,3.00
2017-11-21T10:01:59.963Z,2.73
2017-11-21T10:04:26.660Z,3.47
2017-11-21T10:06:53.334Z,3.00
2017-11-21T10:09:20.049Z,3.20
2017-11-21T10:11:48.076Z,3.43
2017-11-21T10:14:30.585Z,2.87
2017-11-21T10:16:57.261Z,2.40
2017-11-21T10:19:23.935Z,2.93
2017-11-21T10:21:50.620Z,3.43
2017-11-21T10:24:17.287Z,2.50
2017-11-21T10:26:44.013Z,3.20
2017-11-21T10:29:10.691Z,3.43
2017-11-21T10:31:37.404Z,2.90
2017-11-21T10:34:04.064Z,2.60
2017-11-21T10:36:30.721Z,3.30
2017-11-21T10:38:57.438Z,2.70
2017-11-21T10:41:24.127Z,3.17
2017-11-21T10:43:50.827Z,3.10
2017-11-21T10:46:17.500Z,3.77
2017-11-21T10:48:44.204Z,3.70
2017-11-21T10:51:10.933Z,3.47
2017-11-21T10:53:37.610Z,2.87
2017-11-21T10:56:04.513Z,4.30
2017-11-21T10:58:31.522Z,3.40
2017-11-21T11:00:58.224Z,3.50
2017-11-21T11:03:30.817Z,3.60
2017-11-21T11:05:57.510Z,4.37
2017-11-21T11:08:24.681Z,3.63
2017-11-21T11:10:51.375Z,4.43
2017-11-21T11:13:18.172Z,4.70
2017-11-21T11:15:44.916Z,4.50
2017-11-21T11:18:11.632Z,4.20
2017-11-21T11:20:38.298Z,4.60
2017-11-21T11:23:05.000Z,4.10
2017-11-21T11:25:31.668Z,4.27
2017-11-21T11:27:58.352Z,5.33
2017-11-21T11:30:25.027Z,4.60
2017-11-21T11:32:51.740Z,5.10
2017-11-21T11:35:18.452Z,5.40
2017-11-21T11:37:45.205Z,5.40
2017-11-21T11:40:12.363Z,5.10
2017-11-21T11:42:39.046Z,5.87
2017-11-21T11:45:05.748Z,6.13
2017-11-21T11:47:32.456Z,5.57
2017-11-21T11:49:59.152Z,5.53
2017-11-21T11:52:25.815Z,5.57
2017-11-21T11:54:52.484Z,5.83
2017-11-21T11:57:19.439Z,5.53
2017-11-21T11:59:46.110Z,5.93
2017-11-21T12:02:13.085Z,6.23
2017-11-21T12:04:40.246Z,6.50
2017-11-21T12:07:06.922Z,6.43
2017-11-21T12:09:33.686Z,6.90
2017-11-21T12:12:00.346Z,6.37
2017-11-21T12:14:27.046Z,6.47
2017-11-21T12:16:53.747Z,6.97
2017-11-21T12:19:21.032Z,6.70
2017-11-21T12:21:47.734Z,6.63
2017-11-21T12:24:14.425Z,7.17
2017-11-21T12:26:41.144Z,6.37
2017-11-21T12:29:07.821Z,6.70
2017-11-21T12:31:34.500Z,6.90
2017-11-21T12:34:01.218Z,7.60
2017-11-21T12:36:27.929Z,6.50
2017-11-21T12:38:54.621Z,6.93
2017-11-21T12:41:21.308Z,6.00
2017-11-21T12:43:48.017Z,6.77
2017-11-21T12:46:14.713Z,6.83
2017-11-21T12:48:41.376Z,7.37
2017-11-21T12:51:08.068Z,6.77
2017-11-21T12:53:34.875Z,6.23
2017-11-21T12:56:01.607Z,6.53
2017-11-21T12:58:28.424Z,6.60
2017-11-21T13:00:55.104Z,6.40
2017-11-21T13:03:21.820Z,6.30
2017-11-21T13:05:48.481Z,5.80
2017-11-21T13:08:16.052Z,6.60
2017-11-21T13:10:42.833Z,6.20
2017-11-21T13:13:12.501Z,6.93
2017-11-21T13:15:39.180Z,6.37
2017-11-21T13:18:05.863Z,6.03
2017-11-21T13:20:32.553Z,5.63
2017-11-21T13:22:59.267Z,6.00
2017-11-21T13:25:25.947Z,6.40
2017-11-21T13:27:52.653Z,5.57
2017-11-21T13:30:19.350Z,6.23
2017-11-21T13:32:46.037Z,6.43
2017-11-21T13:35:12.820Z,6.30
2017-11-21T13:37:39.518Z,5.30
2017-11-21T13:40:06.236Z,7.00
2017-11-21T13:42:32.940Z,5.77
2017-11-21T13:44:59.617Z,5.53
2017-11-21T13:47:26.330Z,6.33
2017-11-21T13:49:53.010Z,5.27
2017-11-21T13:52:19.691Z,5.53
2017-11-21T13:54:46.381Z,6.37
2017-11-21T13:57:13.113Z,6.20
2017-11-21T13:59:39.809Z,6.87
2017-11-21T14:02:06.507Z,6.30
2017-11-21T14:04:33.214Z,6.30
2017-11-21T14:06:59.923Z,6.30
2017-11-21T14:09:26.683Z,6.57
2017-11-21T14:11:53.367Z,7.30
2017-11-21T14:14:20.023Z,6.50
2017-11-21T14:16:46.728Z,6.00
2017-11-21T14:19:13.407Z,6.63
2017-11-21T14:21:40.123Z,7.17
2017-11-21T14:24:06.779Z,7.63
2017-11-21T14:26:33.469Z,7.53
2017-11-21T14:29:00.175Z,8.73
2017-11-21T14:31:28.575Z,8.53
2017-11-21T14:33:55.287Z,9.30
2017-11-21T14:36:21.950Z,9.73
2017-11-21T14:38:48.662Z,9.93
2017-11-21T14:41:15.851Z,9.70
2017-11-21T14:43:42.706Z,10.60
2017-11-21T14:46:09.453Z,10.43
2017-11-21T14:48:36.144Z,11.40
2017-11-21T14:51:02.831Z,10.13
2017-11-21T14:53:29.534Z,9.43
2017-11-21T14:55:56.253Z,10.10
2017-11-21T14:58:22.935Z,10.17
2017-11-21T15:00:49.607Z,10.60
2017-11-21T15:03:16.313Z,9.73
2017-11-21T15:05:43.114Z,10.13
2017-11-21T15:08:09.804Z,10.17
2017-11-21T15:10:36.505Z,10.80
2017-11-21T15:13:03.217Z,11.57
2017-11-21T15:15:29.893Z,10.30
2017-11-21T15:17:56.586Z,9.80
2017-11-21T15:20:23.298Z,9.73
2017-11-21T15:22:49.966Z,11.67
2017-11-21T15:25:16.669Z,11.20
2017-11-21T15:27:43.343Z,11.03
2017-11-21T15:30:10.018Z,11.33
2017-11-21T15:32:36.765Z,11.10
2017-11-21T15:35:03.479Z,11.50
2017-11-21T15:37:30.198Z,10.40
2017-11-21T15:39:56.900Z,10.80
2017-11-21T15:42:23.614Z,11.60
2017-11-21T15:44:50.339Z,10.97
2017-11-21T15:47:17.075Z,12.03
2017-11-21T15:49:43.948Z,11.73
2017-11-21T15:52:10.669Z,11.30
2017-11-21T15:54:37.410Z,11.73
2017-11-21T15:57:04.133Z,11.90
2017-11-21T15:59:30.821Z,11.30
2017-11-21T16:01:57.521Z,12.57
2017-11-21T16:04:24.230Z,11.77
2017-11-21T16:06:50.921Z,13.00
2017-11-21T16:09:17.668Z,12.50
2017-11-21T16:11:44.382Z,11.70
2017-11-21T16:14:11.140Z,10.87
2017-11-21T16:16:37.823Z,11.00
2017-11-21T16:19:04.554Z,12.40
2017-11-21T16:21:31.280Z,13.87
2017-11-21T16:23:57.992Z,12.97
2017-11-21T16:26:24.696Z,12.30
2017-11-21T16:28:51.405Z,14.30
2017-11-21T16:31:18.176Z,13.57
2017-11-21T16:33:44.878Z,13.70
2017-11-21T16:36:11.608Z,14.70
2017-11-21T16:38:38.320Z,13.00
2017-11-21T16:41:05.009Z,13.67
2017-11-21T16:43:31.770Z,13.60
2017-11-21T16:45:58.485Z,13.27
2017-11-21T16:48:25.757Z,13.63
2017-11-21T16:50:52.469Z,13.07
2017-11-21T16:53:19.165Z,14.00
2017-11-21T16:55:45.859Z,12.77
2017-11-21T16:58:12.551Z,13.10
2017-11-21T17:00:39.252Z,12.80
2017-11-21T17:03:05.958Z,11.97
2017-11-21T17:05:32.720Z,12.90
2017-11-21T17:07:59.417Z,11.90
2017-11-21T17:10:26.098Z,12.70
2017-11-21T17:12:52.919Z,13.37
2017-11-21T17:15:19.597Z,12.60
2017-11-21T17:17:46.286Z,12.27
2017-11-21T17:20:12.981Z,12.07
2017-11-21T17:22:39.680Z,13.00
2017-11-21T17:25:06.392Z,12.40
2017-11-21T17:27:33.154Z,12.67
2017-11-21T17:29:59.851Z,14.13
2017-11-21T17:32:26.579Z,12.30
2017-11-21T17:34:53.254Z,12.03
2017-11-21T17:37:19.959Z,12.30
2017-11-21T17:39:48.186Z,11.53
2017-11-21T17:42:15.436Z,11.20
2017-11-21T17:44:42.212Z,11.37
2017-11-21T17:47:08.891Z,11.40
2017-11-21T17:49:35.618Z,12.50
2017-11-21T17:52:02.285Z,12.30
2017-11-21T17:54:29.030Z,11.67
2017-11-21T17:56:58.519Z,13.10
2017-11-21T17:59:25.205Z,12.27
2017-11-21T18:01:52.144Z,12.43
2017-11-21T18:04:18.834Z,12.60
2017-11-21T18:06:45.546Z,12.10
2017-11-21T18:09:12.221Z,11.90
2017-11-21T18:11:38.942Z,11.60
2017-11-21T18:14:05.624Z,12.40
2017-11-21T18:16:32.339Z,11.90
2017-11-21T18:18:59.046Z,12.13
2017-11-21T18:21:25.769Z,13.47
2017-11-21T18:23:52.491Z,12.07
2017-11-21T18:26:19.243Z,13.23
2017-11-21T18:28:46.016Z,13.70
2017-11-21T18:31:12.694Z,14.40
2017-11-21T18:33:39.441Z,14.07
2017-11-21T18:36:06.136Z,14.73
2017-11-21T18:38:32.843Z,14.60
2017-11-21T18:40:59.551Z,14.40
2017-11-21T18:43:26.225Z,14.20
2017-11-21T18:45:52.943Z,14.13
2017-11-21T18:48:19.880Z,13.10
2017-11-21T18:50:46.578Z,15.10
2017-11-21T18:53:13.305Z,16.03
2017-11-21T18:55:39.993Z,15.13
2017-11-21T18:58:06.704Z,14.20
2017-11-21T19:00:33.428Z,13.80
2017-11-21T19:03:00.131Z,13.37
2017-11-21T19:05:26.866Z,13.10
2017-11-21T19:07:53.653Z,14.37
2017-11-21T19:10:20.390Z,14.00
2017-11-21T19:12:47.082Z,13.33
2017-11-21T19:15:13.750Z,13.47
2017-11-21T19:17:40.469Z,14.90
2017-11-21T19:20:07.752Z,13.80
2017-11-21T19:22:34.448Z,14.60
2017-11-21T19:25:01.205Z,15.00
2017-11-21T19:27:27.917Z,15.03
2017-11-21T19:29:54.602Z,15.90
2017-11-21T19:32:21.286Z,15.77
2017-11-21T19:34:48.076Z,14.90
2017-11-21T19:37:14.797Z,15.30
2017-11-21T19:39:41.477Z,15.63
2017-11-21T19:42:08.194Z,14.37
2017-11-21T19:44:34.873Z,14.00
2017-11-21T19:47:01.720Z,16.00
2017-11-21T19:49:28.448Z,16.30
2017-11-21T19:51:55.280Z,15.57
2017-11-21T19:54:22.003Z,15.93
2017-11-21T19:56:48.789Z,14.77
2017-11-21T19:59:15.477Z,16.70
2017-11-21T20:01:42.196Z,16.50
2017-11-21T20:04:08.898Z,16.97
2017-11-21T20:06:35.598Z,16.23
2017-11-21T20:09:02.311Z,15.77
2017-11-21T20:11:29.009Z,14.73
2017-11-21T20:13:55.813Z,15.60
2017-11-21T20:16:22.566Z,15.20
2017-11-21T20:18:49.447Z,16.10
2017-11-21T20:21:16.195Z,16.70
2017-11-21T20:23:42.961Z,15.77
2017-11-21T20:26:09.899Z,14.60
2017-11-21T20:28:36.655Z,14.50
2017-11-21T20:31:03.408Z,14.77
2017-11-21T20:33:30.158Z,14.23
2017-11-21T20:35:56.844Z,13.83
2017-11-21T20:38:23.706Z,15.20
2017-11-21T20:40:50.458Z,14.40
2017-11-21T20:43:17.159Z,15.50
2017-11-21T20:45:43.851Z,13.47
2017-11-21T20:48:11.431Z,14.43
2017-11-21T20:50:38.199Z,13.10
2017-11-21T20:53:04.978Z,12.93
2017-11-21T20:55:31.698Z,14.70
2017-11-21T20:57:58.510Z,13.03
2017-11-21T21:00:25.229Z,13.73
2017-11-21T21:02:51.904Z,16.03
2017-11-21T21:05:18.586Z,13.23
2017-11-21T21:07:45.324Z,14.20
2017-11-21T21:10:12.005Z,13.50
2017-11-21T21:12:38.705Z,14.47
2017-11-21T21:15:05.439Z,13.37
2017-11-21T21:17:32.255Z,13.30
2017-11-21T21:19:58.947Z,12.33
2017-11-21T21:22:25.679Z,13.40
2017-11-21T21:24:53.992Z,13.00
2017-11-21T21:27:26.414Z,13.07
2017-11-21T21:29:53.096Z,13.77
2017-11-21T21:32:19.813Z,14.00
2017-11-21T21:34:46.510Z,13.77
2017-11-21T21:37:13.187Z,13.90
2017-11-21T21:39:39.905Z,12.97
2017-11-21T21:42:06.570Z,13.23
2017-11-21T21:44:33.286Z,13.77
2017-11-21T21:47:00.015Z,13.10
2017-11-21T21:49:26.691Z,13.27
2017-11-21T21:51:53.391Z,13.77
2017-11-21T21:54:20.088Z,14.37
2017-11-21T21:56:46.791Z,14.20
2017-11-21T21:59:13.498Z,13.40
2017-11-21T22:01:40.667Z,13.27
2017-11-21T22:04:07.357Z,13.30
2017-11-21T22:06:34.067Z,12.77
2017-11-21T22:09:00.786Z,14.70
2017-11-21T22:11:27.484Z,13.40
2017-11-21T22:13:54.202Z,13.57
2017-11-21T22:16:20.877Z,13.57
2017-11-21T22:18:47.600Z,13.73
2017-11-21T22:21:14.385Z,13.00
2017-11-21T22:23:41.085Z,14.30
2017-11-21T22:26:07.781Z,12.60
2017-11-21T22:28:34.459Z,12.83
2017-11-21T22:31:01.135Z,13.60
2017-11-21T22:33:27.863Z,12.63
2017-11-21T22:35:54.567Z,12.93
2017-11-21T22:38:21.257Z,13.13
2017-11-21T22:40:47.953Z,12.90
2017-11-21T22:43:14.633Z,11.00
2017-11-21T22:45:41.306Z,12.63
2017-11-21T22:48:08.012Z,12.33
2017-11-21T22:50:34.681Z,11.27
2017-11-21T22:53:01.379Z,12.90
2017-11-21T22:55:28.076Z,13.73
2017-11-21T22:57:54.749Z,12.77
2017-11-21T23:00:21.439Z,11.77
2017-11-21T23:02:48.266Z,13.97
2017-11-21T23:05:14.965Z,12.73
2017-11-21T23:07:41.689Z,12.20
2017-11-21T23:10:08.364Z,13.07
2017-11-21T23:12:35.063Z,12.13
2017-11-21T23:15:01.752Z,11.23
2017-11-21T23:17:28.456Z,12.60
2017-11-21T23:19:55.169Z,12.33
2017-11-21T23:22:21.870Z,12.53
2017-11-21T23:24:48.658Z,13.10
2017-11-21T23:27:15.323Z,12.30
2017-11-21T23:29:42.043Z,13.10
2017-11-21T23:32:08.739Z,13.27
2017-11-21T23:34:35.433Z,12.80
2017-11-21T23:37:02.181Z,12.37
2017-11-21T23:39:28.872Z,12.50
2017-11-21T23:41:55.562Z,14.60
2017-11-21T23:44:22.263Z,13.57
2017-11-21T23:46:48.948Z,13.10
2017-11-21T23:49:15.639Z,13.63
2017-11-21T23:51:42.324Z,14.00
2017-11-21T23:54:09.015Z,13.43
2017-11-21T23:56:35.705Z,13.73
2017-11-21T23:59:02.392Z,13.60
